createdAt,value
2018-06-24T00:03:16.973Z,63.10
2018-06-24T00:05:45.831Z,62.80
2018-06-24T00:08:14.700Z,63.00
2018-06-24T00:13:12.136Z,62.80
2018-06-24T00:15:41.005Z,63.80
2018-06-24T00:18:09.900Z,63.30
2018-06-24T00:20:38.739Z,64.10
2018-06-24T00:23:07.556Z,63.90
2018-06-24T00:25:36.396Z,63.70
2018-06-24T00:28:05.328Z,63.60
2018-06-24T00:30:34.164Z,64.20
2018-06-24T00:33:02.988Z,64.30
2018-06-24T00:38:00.324Z,65.20
2018-06-24T00:40:29.198Z,65.70
2018-06-24T00:42:58.011Z,66.10
2018-06-24T00:45:26.932Z,66.90
2018-06-24T00:50:24.289Z,68.50
2018-06-24T00:52:53.168Z,69.30
2018-06-24T00:55:22.036Z,69.80
2018-06-24T00:57:50.950Z,69.80
2018-06-24T01:00:19.900Z,69.60
2018-06-24T01:02:48.763Z,69.60
2018-06-24T01:07:46.392Z,69.40
2018-06-24T01:10:15.219Z,69.30
2018-06-24T01:15:12.488Z,68.70
2018-06-24T01:17:41.333Z,68.50
2018-06-24T01:20:10.516Z,68.70
2018-06-24T01:22:39.415Z,69.00
2018-06-24T01:25:08.293Z,69.60
2018-06-24T01:27:37.183Z,70.10
2018-06-24T01:30:06.179Z,70.30
2018-06-24T01:32:35.093Z,70.20
2018-06-24T01:35:03.978Z,70.00
2018-06-24T01:37:32.924Z,70.20
2018-06-24T01:42:30.335Z,70.40
2018-06-24T01:44:59.217Z,70.50
2018-06-24T01:47:28.099Z,70.50
2018-06-24T01:49:56.972Z,70.70
2018-06-24T01:52:25.850Z,70.60
2018-06-24T01:54:54.743Z,70.80
2018-06-24T01:59:52.097Z,70.50
2018-06-24T02:02:21.134Z,70.80
2018-06-24T02:04:50.065Z,71.10
2018-06-24T02:07:19.653Z,71.30
2018-06-24T02:09:48.514Z,71.70
2018-06-24T02:12:17.381Z,71.50
2018-06-24T02:17:14.754Z,71.10
2018-06-24T02:22:12.081Z,70.60
2018-06-24T02:24:41.008Z,71.00
2018-06-24T02:27:09.880Z,71.00
2018-06-24T02:32:07.130Z,71.10
2018-06-24T02:34:36.009Z,71.40
2018-06-24T02:37:04.937Z,71.30
2018-06-24T02:39:33.777Z,71.20
2018-06-24T02:42:02.593Z,71.20
2018-06-24T02:44:31.426Z,71.00
2018-06-24T02:49:28.737Z,70.80
2018-06-24T02:51:57.617Z,70.80
2018-06-24T02:54:26.508Z,70.90
2018-06-24T02:56:55.333Z,71.10
2018-06-24T02:59:24.213Z,71.10
2018-06-24T03:01:53.103Z,71.10
2018-06-24T03:04:22.028Z,71.10
2018-06-24T03:06:50.893Z,70.80
2018-06-24T03:09:19.798Z,70.60
2018-06-24T03:11:48.709Z,70.50
2018-06-24T03:16:46.064Z,71.00
2018-06-24T03:19:14.926Z,71.00
2018-06-24T03:21:43.845Z,71.10
2018-06-24T03:24:12.677Z,71.60
2018-06-24T03:26:41.541Z,71.50
2018-06-24T03:29:10.410Z,71.30
2018-06-24T03:31:39.245Z,71.40
2018-06-24T03:34:08.026Z,71.50
2018-06-24T03:36:36.858Z,71.40
2018-06-24T03:39:08.080Z,71.80
2018-06-24T03:41:36.912Z,71.80
2018-06-24T03:44:05.868Z,71.60
2018-06-24T03:46:34.751Z,71.50
2018-06-24T03:49:03.584Z,71.60
2018-06-24T03:51:32.453Z,71.80
2018-06-24T03:54:01.281Z,72.00
2018-06-24T04:01:27.701Z,71.60
2018-06-24T04:03:56.759Z,71.30
2018-06-24T04:06:25.588Z,70.90
2018-06-24T04:08:54.396Z,70.30
2018-06-24T04:11:23.304Z,69.60
2018-06-24T04:13:52.184Z,69.40
2018-06-24T04:16:21.041Z,69.20
2018-06-24T04:18:49.863Z,69.00
2018-06-24T04:21:18.685Z,69.50
2018-06-24T04:23:47.558Z,68.90
2018-06-24T04:28:44.909Z,69.80
2018-06-24T04:31:13.778Z,69.30
2018-06-24T04:33:42.611Z,68.50
2018-06-24T04:38:39.876Z,68.30
2018-06-24T04:41:09.360Z,67.80
2018-06-24T04:43:38.172Z,68.10
2018-06-24T04:48:35.588Z,68.30
2018-06-24T04:51:04.444Z,68.00
2018-06-24T04:56:01.929Z,68.60
2018-06-24T04:58:31.010Z,68.60
2018-06-24T05:03:28.721Z,67.60
2018-06-24T05:05:57.805Z,67.10
2018-06-24T05:08:26.889Z,66.00
2018-06-24T05:10:55.942Z,65.70
2018-06-24T05:15:53.614Z,63.90
2018-06-24T05:18:22.724Z,64.10
2018-06-24T05:20:51.791Z,64.20
2018-06-24T05:23:20.837Z,64.70
2018-06-24T05:28:18.485Z,64.60
2018-06-24T05:30:47.574Z,65.60
2018-06-24T05:33:16.633Z,65.40
2018-06-24T05:35:45.704Z,65.10
2018-06-24T05:38:15.086Z,64.50
2018-06-24T05:40:44.133Z,64.20
2018-06-24T05:43:13.216Z,64.20
2018-06-24T05:45:42.281Z,63.30
2018-06-24T05:50:40.066Z,62.70
2018-06-24T05:53:09.286Z,63.20
2018-06-24T05:55:38.385Z,65.50
2018-06-24T05:58:07.507Z,66.00
2018-06-24T06:00:36.649Z,65.40
2018-06-24T06:05:34.313Z,64.90
2018-06-24T06:08:03.467Z,64.40
2018-06-24T06:10:32.581Z,64.40
2018-06-24T06:13:01.785Z,64.70
2018-06-24T06:15:30.897Z,63.60
2018-06-24T06:18:00.000Z,63.90
2018-06-24T06:22:57.778Z,61.80
2018-06-24T06:25:26.961Z,61.30
2018-06-24T06:27:56.017Z,62.30
2018-06-24T06:30:25.194Z,61.20
2018-06-24T06:32:54.310Z,59.40
2018-06-24T06:35:23.398Z,59.10
2018-06-24T06:37:52.513Z,58.30
2018-06-24T06:40:21.721Z,58.40
2018-06-24T06:42:50.849Z,58.50
2018-06-24T06:45:20.211Z,59.30
2018-06-24T06:47:49.263Z,59.40
2018-06-24T06:52:47.154Z,58.90
2018-06-24T06:55:16.325Z,59.50
2018-06-24T06:57:45.642Z,60.20
2018-06-24T07:00:14.953Z,59.20
2018-06-24T07:02:44.169Z,58.00
2018-06-24T07:05:13.281Z,57.90
2018-06-24T07:07:42.499Z,56.60
2018-06-24T07:10:11.694Z,57.10
2018-06-24T07:12:40.898Z,56.80
2018-06-24T07:15:10.035Z,57.90
2018-06-24T07:17:39.250Z,56.70
2018-06-24T07:20:08.452Z,55.20
2018-06-24T07:22:37.551Z,55.90
2018-06-24T07:25:06.836Z,56.90
2018-06-24T07:27:36.077Z,54.80
2018-06-24T07:30:05.889Z,54.60
2018-06-24T07:32:35.137Z,55.30
2018-06-24T07:35:04.334Z,55.30
2018-06-24T07:37:33.545Z,56.20
2018-06-24T07:40:02.674Z,55.70
2018-06-24T07:42:31.821Z,56.70
2018-06-24T07:45:01.017Z,55.90
2018-06-24T07:47:30.266Z,54.80
2018-06-24T07:49:59.421Z,55.60
2018-06-24T07:52:28.649Z,56.60
2018-06-24T07:54:57.798Z,57.10
2018-06-24T07:57:27.081Z,56.50
2018-06-24T07:59:56.210Z,56.50
2018-06-24T08:02:25.396Z,56.50
2018-06-24T08:07:23.235Z,56.30
2018-06-24T08:09:52.418Z,56.10
2018-06-24T08:12:21.569Z,55.70
2018-06-24T08:17:19.298Z,54.30
2018-06-24T08:19:48.437Z,54.10
2018-06-24T08:24:46.238Z,52.20
2018-06-24T08:27:15.361Z,51.40
2018-06-24T08:29:44.453Z,50.30
2018-06-24T08:32:13.561Z,50.50
2018-06-24T08:34:42.699Z,50.40
2018-06-24T08:37:12.035Z,49.80
2018-06-24T08:39:41.250Z,50.50
2018-06-24T08:42:11.265Z,49.70
2018-06-24T08:44:40.483Z,49.70
2018-06-24T08:47:10.037Z,49.40
2018-06-24T08:49:39.201Z,48.70
2018-06-24T08:52:08.368Z,49.80
2018-06-24T08:54:37.558Z,48.40
2018-06-24T08:57:06.710Z,48.70
2018-06-24T08:59:35.861Z,48.50
2018-06-24T09:02:05.098Z,48.60
2018-06-24T09:04:34.201Z,47.20
2018-06-24T09:07:03.321Z,47.70
2018-06-24T09:09:32.465Z,49.10
2018-06-24T09:12:01.562Z,48.60
2018-06-24T09:14:30.734Z,48.30
2018-06-24T09:16:59.911Z,48.60
2018-06-24T09:19:29.153Z,48.40
2018-06-24T09:21:58.382Z,47.00
2018-06-24T09:24:27.483Z,44.40
2018-06-24T09:26:56.627Z,46.20
2018-06-24T09:29:25.873Z,46.50
2018-06-24T09:31:55.070Z,46.10
2018-06-24T09:34:24.206Z,47.00
2018-06-24T09:36:53.346Z,46.60
2018-06-24T09:39:22.502Z,45.90
2018-06-24T09:41:51.655Z,44.50
2018-06-24T09:46:49.467Z,43.30
2018-06-24T09:49:18.578Z,44.00
2018-06-24T09:51:47.626Z,44.90
2018-06-24T09:54:16.500Z,44.60
2018-06-24T09:56:45.406Z,44.00
2018-06-24T09:59:14.273Z,43.40
2018-06-24T10:01:43.101Z,41.90
2018-06-24T10:06:41.187Z,41.40
2018-06-24T10:09:11.174Z,42.50
2018-06-24T10:11:40.066Z,43.00
2018-06-24T10:14:09.505Z,44.80
2018-06-24T10:16:38.453Z,43.10
2018-06-24T10:19:07.468Z,43.10
2018-06-24T10:21:36.405Z,43.00
2018-06-24T10:24:05.327Z,43.60
2018-06-24T10:26:34.179Z,41.30
2018-06-24T10:29:03.003Z,41.90
2018-06-24T10:31:31.840Z,40.50
2018-06-24T10:34:00.712Z,39.60
2018-06-24T10:36:29.677Z,39.30
2018-06-24T10:38:58.681Z,39.10
2018-06-24T10:41:27.712Z,39.20
2018-06-24T10:46:25.132Z,39.50
2018-06-24T10:48:54.160Z,38.70
2018-06-24T10:51:23.174Z,39.10
2018-06-24T10:53:52.065Z,37.70
2018-06-24T10:56:21.299Z,37.50
2018-06-24T10:58:50.311Z,37.30
2018-06-24T11:01:19.258Z,37.60
2018-06-24T11:03:48.609Z,36.90
2018-06-24T11:06:17.582Z,37.10
2018-06-24T11:08:46.529Z,35.90
2018-06-24T11:13:43.989Z,34.90
2018-06-24T11:16:13.178Z,36.40
2018-06-24T11:18:42.213Z,37.10
2018-06-24T11:21:11.337Z,36.80
2018-06-24T11:23:40.322Z,36.80
2018-06-24T11:26:09.325Z,38.30
2018-06-24T11:28:38.290Z,37.60
2018-06-24T11:31:08.010Z,36.60
2018-06-24T11:33:36.929Z,36.10
2018-06-24T11:36:06.477Z,36.70
2018-06-24T11:41:04.025Z,36.20
2018-06-24T11:43:32.993Z,35.90
2018-06-24T11:46:01.939Z,36.10
2018-06-24T11:48:30.930Z,34.10
2018-06-24T11:53:28.425Z,34.10
2018-06-24T11:55:57.377Z,33.70
2018-06-24T11:58:26.366Z,33.50
2018-06-24T12:00:55.526Z,32.90
2018-06-24T12:03:24.490Z,33.50
2018-06-24T12:05:53.481Z,32.10
2018-06-24T12:08:22.463Z,31.90
2018-06-24T12:13:19.937Z,32.40
2018-06-24T12:15:48.867Z,32.20
2018-06-24T12:18:17.865Z,32.00
2018-06-24T12:20:47.673Z,31.00
2018-06-24T12:23:16.608Z,31.30
2018-06-24T12:25:45.575Z,30.00
2018-06-24T12:28:14.675Z,30.00
2018-06-24T12:33:12.480Z,29.80
2018-06-24T12:35:41.408Z,29.80
2018-06-24T12:38:10.433Z,29.80
2018-06-24T12:40:39.353Z,30.30
2018-06-24T12:43:08.289Z,30.00
2018-06-24T12:45:37.236Z,27.40
2018-06-24T12:48:06.213Z,29.20
2018-06-24T12:50:35.114Z,27.90
2018-06-24T12:53:03.975Z,28.90
2018-06-24T12:55:32.897Z,27.30
2018-06-24T12:58:01.820Z,27.00
2018-06-24T13:02:59.316Z,30.10
2018-06-24T13:05:28.270Z,29.80
2018-06-24T13:07:57.182Z,29.80
2018-06-24T13:10:26.149Z,30.90
2018-06-24T13:12:55.053Z,30.20
2018-06-24T13:17:52.437Z,31.00
2018-06-24T13:20:21.370Z,30.50
2018-06-24T13:22:50.265Z,30.60
2018-06-24T13:25:19.177Z,30.40
2018-06-24T13:27:48.127Z,29.30
2018-06-24T13:30:17.055Z,28.70
2018-06-24T13:32:46.505Z,29.60
2018-06-24T13:35:15.455Z,30.40
2018-06-24T13:37:45.075Z,31.60
2018-06-24T13:40:14.055Z,32.40
2018-06-24T13:42:42.933Z,31.90
2018-06-24T13:45:11.787Z,32.60
2018-06-24T13:47:40.633Z,31.60
2018-06-24T13:50:10.472Z,31.50
2018-06-24T13:52:39.432Z,32.10
2018-06-24T13:55:08.266Z,32.40
2018-06-24T13:57:37.222Z,33.10
2018-06-24T14:00:06.315Z,32.40
2018-06-24T14:02:35.239Z,32.50
2018-06-24T14:05:04.160Z,30.70
2018-06-24T14:07:33.265Z,30.60
2018-06-24T14:10:02.282Z,30.10
2018-06-24T14:12:31.205Z,29.60
2018-06-24T14:15:00.166Z,31.40
2018-06-24T14:17:29.238Z,31.30
2018-06-24T14:19:58.410Z,31.50
2018-06-24T14:22:27.386Z,32.20
2018-06-24T14:24:56.338Z,32.10
2018-06-24T14:27:25.273Z,31.60
2018-06-24T14:29:54.167Z,32.20
2018-06-24T14:32:22.995Z,31.90
2018-06-24T14:34:51.940Z,32.40
2018-06-24T14:37:20.834Z,33.40
2018-06-24T14:39:49.936Z,33.50
2018-06-24T14:42:18.808Z,32.20
2018-06-24T14:44:47.681Z,31.00
2018-06-24T14:49:45.348Z,29.70
2018-06-24T14:52:14.260Z,29.40
2018-06-24T14:54:43.124Z,29.00
2018-06-24T14:57:12.019Z,29.00
2018-06-24T14:59:40.879Z,27.60
2018-06-24T15:02:09.733Z,27.70
2018-06-24T15:04:38.625Z,26.80
2018-06-24T15:07:07.659Z,27.20
2018-06-24T15:09:36.541Z,27.60
2018-06-24T15:12:05.417Z,26.80
2018-06-24T15:14:34.285Z,27.60
2018-06-24T15:17:03.364Z,26.90
2018-06-24T15:22:00.671Z,27.40
2018-06-24T15:24:29.549Z,27.40
2018-06-24T15:26:58.394Z,28.10
2018-06-24T15:29:27.242Z,28.80
2018-06-24T15:31:56.156Z,28.70
2018-06-24T15:34:25.042Z,28.90
2018-06-24T15:36:53.945Z,28.20
2018-06-24T15:39:22.848Z,28.40
2018-06-24T15:41:51.730Z,27.80
2018-06-24T15:44:20.633Z,27.80
2018-06-24T15:46:50.293Z,28.50
2018-06-24T15:49:19.321Z,28.80
2018-06-24T15:51:48.320Z,28.90
2018-06-24T15:54:17.561Z,29.20
2018-06-24T15:56:46.545Z,29.70
2018-06-24T15:59:15.494Z,28.80
2018-06-24T16:01:45.461Z,28.30
2018-06-24T16:04:14.477Z,28.30
2018-06-24T16:06:43.465Z,27.30
2018-06-24T16:09:14.155Z,28.10
2018-06-24T16:11:43.330Z,27.90
2018-06-24T16:14:12.282Z,27.80
2018-06-24T16:16:41.329Z,28.20
2018-06-24T16:19:10.300Z,27.60
2018-06-24T16:21:39.272Z,27.10
2018-06-24T16:24:08.325Z,27.30
2018-06-24T16:26:37.246Z,28.00
2018-06-24T16:29:06.138Z,28.00
2018-06-24T16:31:35.021Z,28.20
2018-06-24T16:34:03.989Z,28.90
2018-06-24T16:36:32.858Z,29.40
2018-06-24T16:39:01.778Z,29.90
2018-06-24T16:41:30.692Z,30.30
2018-06-24T16:43:59.558Z,31.20
2018-06-24T16:46:28.456Z,32.00
2018-06-24T16:51:25.873Z,32.70
2018-06-24T16:53:54.871Z,33.90
2018-06-24T16:56:23.781Z,34.90
2018-06-24T16:58:52.736Z,35.60
2018-06-24T17:01:21.759Z,36.30
2018-06-24T17:03:50.852Z,36.90
2018-06-24T17:06:19.808Z,37.50
2018-06-24T17:08:48.769Z,37.90
2018-06-24T17:11:18.029Z,37.70
2018-06-24T17:13:47.120Z,38.30
2018-06-24T17:16:16.086Z,38.40
2018-06-24T17:18:45.034Z,38.70
2018-06-24T17:21:13.982Z,38.80
2018-06-24T17:23:42.960Z,38.80
2018-06-24T17:26:11.881Z,39.10
2018-06-24T17:28:40.841Z,39.00
2018-06-24T17:31:10.098Z,39.20
2018-06-24T17:33:39.024Z,39.10
2018-06-24T17:36:07.987Z,39.00
2018-06-24T17:38:37.209Z,38.80
2018-06-24T17:41:06.256Z,39.10
2018-06-24T17:43:35.141Z,39.40
2018-06-24T17:46:04.151Z,39.50
2018-06-24T17:48:33.786Z,40.30
2018-06-24T17:51:03.145Z,40.40
2018-06-24T17:53:32.184Z,40.70
2018-06-24T17:56:01.866Z,41.10
2018-06-24T17:58:30.836Z,41.60
2018-06-24T18:00:59.806Z,42.30
2018-06-24T18:03:28.914Z,42.90
2018-06-24T18:05:57.922Z,43.40
2018-06-24T18:08:28.452Z,44.00
2018-06-24T18:13:26.496Z,45.50
2018-06-24T18:18:25.136Z,46.20
2018-06-24T18:20:56.483Z,46.80
2018-06-24T18:23:27.792Z,47.30
2018-06-24T18:25:56.908Z,48.10
2018-06-24T18:28:26.119Z,48.40
2018-06-24T18:30:55.484Z,49.30
2018-06-24T18:33:24.477Z,50.00
2018-06-24T18:35:53.709Z,50.10
2018-06-24T18:38:22.798Z,50.40
2018-06-24T18:40:51.699Z,50.90
2018-06-24T18:43:20.629Z,51.10
2018-06-24T18:45:49.935Z,52.10
2018-06-24T18:48:19.343Z,52.60
2018-06-24T18:50:48.346Z,52.80
2018-06-24T18:53:18.105Z,53.90
2018-06-24T18:55:47.202Z,53.70
2018-06-24T18:58:16.589Z,54.50
2018-06-24T19:00:47.025Z,54.00
2018-06-24T19:03:15.924Z,54.20
2018-06-24T19:05:44.817Z,54.30
2018-06-24T19:08:13.757Z,54.30
2018-06-24T19:13:11.385Z,53.70
2018-06-24T19:15:41.547Z,53.50
2018-06-24T19:23:09.096Z,53.90
2018-06-24T19:25:38.027Z,54.10
2018-06-24T19:30:36.633Z,53.90
2018-06-24T19:33:06.190Z,53.40
2018-06-24T19:35:35.075Z,53.50
2018-06-24T19:38:04.051Z,53.90
2018-06-24T19:40:33.037Z,54.00
2018-06-24T19:43:01.884Z,54.00
2018-06-24T19:45:30.797Z,54.00
2018-06-24T19:50:28.321Z,54.30
2018-06-24T19:52:58.194Z,54.40
2018-06-24T19:55:27.196Z,54.80
2018-06-24T19:57:56.119Z,54.60
2018-06-24T20:00:25.153Z,55.30
2018-06-24T20:02:54.224Z,55.50
2018-06-24T20:05:23.202Z,55.20
2018-06-24T20:07:52.765Z,55.00
2018-06-24T20:10:21.732Z,55.00
2018-06-24T20:12:50.704Z,55.10
2018-06-24T20:15:19.568Z,55.30
2018-06-24T20:17:48.490Z,55.40
2018-06-24T20:20:18.153Z,55.50
2018-06-24T20:22:47.469Z,55.60
2018-06-24T20:25:16.369Z,56.00
2018-06-24T20:32:42.153Z,59.70
2018-06-24T20:35:10.960Z,61.00
2018-06-24T20:37:39.745Z,61.60
2018-06-24T20:40:08.564Z,63.10
2018-06-24T20:42:37.449Z,63.80
2018-06-24T20:45:06.713Z,64.30
2018-06-24T20:47:35.532Z,64.80
2018-06-24T20:50:04.421Z,65.80
2018-06-24T20:52:33.257Z,67.50
2018-06-24T20:55:02.469Z,68.50
2018-06-24T20:57:31.339Z,69.60
2018-06-24T21:00:00.217Z,71.00
2018-06-24T21:02:29.805Z,72.30
2018-06-24T21:04:58.837Z,72.10
2018-06-24T21:07:27.753Z,71.50
2018-06-24T21:09:56.636Z,71.60
2018-06-24T21:12:25.520Z,72.10
2018-06-24T21:14:54.449Z,72.30
2018-06-24T21:19:51.815Z,73.40
2018-06-24T21:24:49.157Z,73.50
2018-06-24T21:27:18.084Z,72.90
2018-06-24T21:29:47.081Z,71.70
2018-06-24T21:32:15.919Z,71.90
2018-06-24T21:34:44.725Z,73.10
2018-06-24T21:37:13.541Z,74.80
2018-06-24T21:42:10.778Z,76.70
2018-06-24T21:44:39.601Z,76.40
2018-06-24T21:49:36.972Z,77.80
2018-06-24T21:52:06.069Z,77.90
2018-06-24T21:54:34.948Z,77.50
2018-06-24T21:59:32.220Z,76.10
2018-06-24T22:04:29.673Z,77.30
2018-06-24T22:06:58.557Z,77.40
2018-06-24T22:09:27.409Z,77.90
2018-06-24T22:11:56.301Z,78.70
2018-06-24T22:14:25.149Z,78.90
2018-06-24T22:19:22.669Z,79.30
2018-06-24T22:21:51.570Z,79.50
2018-06-24T22:24:20.484Z,79.50
2018-06-24T22:26:49.341Z,79.40
2018-06-24T22:29:18.280Z,79.30
2018-06-24T22:31:47.186Z,80.20
2018-06-24T22:36:44.472Z,81.20
2018-06-24T22:39:13.352Z,81.60
2018-06-24T22:41:42.393Z,81.70
2018-06-24T22:46:39.620Z,81.90
2018-06-24T22:49:08.457Z,82.50
2018-06-24T22:51:37.368Z,82.20
2018-06-24T22:54:06.287Z,82.70
2018-06-24T22:56:35.101Z,83.00
2018-06-24T22:59:15.024Z,83.20
2018-06-24T23:01:43.867Z,83.50
2018-06-24T23:04:12.724Z,83.40
2018-06-24T23:06:41.649Z,83.50
2018-06-24T23:09:10.597Z,83.30
2018-06-24T23:11:39.706Z,83.50
2018-06-24T23:14:08.581Z,83.60
2018-06-24T23:16:37.530Z,83.90
2018-06-24T23:19:06.384Z,84.30
2018-06-24T23:21:35.209Z,84.30
2018-06-24T23:24:04.033Z,84.20
2018-06-24T23:29:01.214Z,84.20
2018-06-24T23:31:30.097Z,84.40
2018-06-24T23:33:59.116Z,84.70
2018-06-24T23:36:28.018Z,85.10
2018-06-24T23:38:56.909Z,84.70
2018-06-24T23:41:25.740Z,84.30
2018-06-24T23:43:54.568Z,84.60
2018-06-24T23:46:23.412Z,85.00
2018-06-24T23:48:52.277Z,85.20
2018-06-24T23:51:21.121Z,85.50
2018-06-24T23:53:50.040Z,85.70
2018-06-24T23:56:18.853Z,85.30
2018-06-24T23:58:47.754Z,84.10
